Logo AVAMET Logo AVAMET
Benvolgut visitant, si us plau, ingressa Recuperar contrasenya
AVAMET paisatges
Union Alcoyana

Rojals Ciudad Quesada

Dades diàries. Acumulats / Últims 30 dies disponibles

Data Temperatura (°C) Humitat rel. (%) Pressió rel. (hPa) Vent (km/h) Precipitació
Mínima Mitjana Màxima Amplitud
tèrmica
Mínima Mitjana Màxima Mínima Mitjana Màxima Predom. Mitjana Ràfega
màxima
Total
(mm)
Índex-n
Mínima Mitjana Màxima Mínima Mitjana Màxima n
0 a 1
P0 max
mm 5'
Dades mensuals acumulades fins l'últim dia disponible
04/2024 10,4 13,7 18,3 17,9 19,2 22,8 27,2 16,8 19 64 94 1.008 1.022 1.033   5,6 41,8 0,0
Dades anuals acumulades fins l'últim dia disponible
2024 6,9 11,7 18,3 15,3 13,6 19,9 27,2 20,3 19 67 95 992 1.019 1.039   6,9 67,6 21,8
Últims 30 dies disponibles
14-04-2024 14,8     19,4     24,7 9,9 38 54 81 1.023 1.025 1.028 SSO 4,5 20,9 0,0
13-04-2024 13,8     18,2     23,2 9,4 40 57 82 1.026 1.028 1.031 SSO 4,0 22,5 0,0
12-04-2024 12,2     16,9     22,1 9,9 39 62 80 1.030 1.031 1.033 S 3,9 24,1 0,0
11-04-2024 12,8     16,3     19,2 6,4 57 72 86 1.026 1.029 1.032 ESE 5,7 22,5 0,0
10-04-2024 11,8     16,5     21,3 9,5 39 62 81 1.025 1.028 1.031 SSO 6,5 35,4 0,0
09-04-2024 14,9     18,1     24,2 9,3 19 48 71 1.015 1.024 1.030 OSO 10,0 41,8 0,0
08-04-2024 18,3     21,8     27,2 8,9 46 62 75 1.010 1.012 1.015 SO 5,9 33,8 0,0
07-04-2024 18,1     20,7     24,3 6,2 53 66 79 1.012 1.014 1.016 ENE 7,0 24,1 0,0
06-04-2024 14,5     18,1     22,1 7,6 63 75 93 1.015 1.017 1.019 S 6,2 29,0 0,0
05-04-2024 13,1     17,3     23,1 10,0 42 77 94 1.018 1.020 1.022 SSE 4,4 20,9 0,0
04-04-2024 13,6     17,4     22,1 8,5 53 72 91 1.019 1.021 1.022 SSE 3,6 30,6 0,0
03-04-2024 11,7     17,8     23,6 11,9 47 65 89 1.019 1.020 1.022 SSO 5,2 30,6 0,0
02-04-2024 11,5     16,0     20,7 9,2 45 60 84 1.018 1.020 1.023 SSO 4,6 25,7 0,0
01-04-2024 10,4     15,4     20,8 10,4 43 58 69 1.008 1.014 1.020 SO 7,0 40,2 0,0
31-03-2024 12,8     14,8     19,9 7,1 58 76 86 998 1.001 1.008 SO 10,7 57,9 0,0
30-03-2024 11,0     14,6     19,1 8,1 48 63 78 997 1.000 1.002 SSO 9,8 46,7 0,0
29-03-2024 14,2     17,9     22,3 8,1 45 66 85 996 1.001 1.005 SSO 8,8 46,7 0,0
28-03-2024 14,3     18,1     23,2 8,9 54 69 81 1.003 1.004 1.007 SSO 11,5 49,9 0,0
27-03-2024 8,8     16,3     23,9 15,1 32 55 74 999 1.002 1.003 SO 10,4 57,9 0,0
26-03-2024 9,5     13,4     16,2 6,7 47 69 95 993 996 1.001 OSO 9,5 57,9 0,5
25-03-2024 13,4     15,2     17,6 4,2 77 87 94 995 1.002 1.009 SE 7,6 32,2 1,5
24-03-2024 13,5     15,5     17,0 3,5 66 79 92 1.009 1.014 1.018 SE 12,7 45,1 2,3
23-03-2024 14,3     17,4     21,3 7,0 53 64 78 1.017 1.018 1.020 NNE 8,3 35,4 0,0
22-03-2024 14,9     18,1     24,3 9,4 28 65 82 1.018 1.020 1.022 NNE 7,4 33,8 0,0
21-03-2024 15,4     17,6     19,1 3,7 62 72 82 1.016 1.020 1.023 NE 13,6 51,5 0,0
20-03-2024 14,3     17,5     20,9 6,6 57 77 94 1.014 1.016 1.018 NE 9,7 43,5 0,0
19-03-2024 13,5     16,7     20,6 7,1 68 87 95 1.015 1.017 1.019 ESE 3,7 22,5 0,0
18-03-2024 14,2     17,6     26,6 12,4 39 72 92 1.017 1.018 1.020 NW 3,9 20,9 0,0
17-03-2024 13,4     18,2     23,1 9,7 53 67 80 1.020 1.023 1.026 ESE 2,7 22,5 0,0
16-03-2024 16,4     19,2     25,8 9,4 45 63 75 1.023 1.025 1.026 W 7,4 24,1 0,0
Últims 13 mesos disponibles
03/2024 8,2 11,9 16,4 15,7 16,1 20,5 26,6 18,4 42 67 87 996 1.013 1.025 W 8,6 67,6 8,9
02/2024 6,9 11,0 14,5 14,8 15,3 19,6 25,2 18,3 45 67 84 999 1.020 1.035 W 6,8 59,5 9,0
01/2024 6,9 11,1 15,8 14,3 13,6 18,5 25,1 18,2 40 68 87 1.008 1.023 1.037 W 6,1 56,3 3,9
12/2023 5,7 10,0 15,7 13,7 14,8 18,7 26,1 20,4 48 66 84 1.003 1.023 1.037 W 5,7 46,7 1,3
11/2023 9,8 13,8 18,8 17,8 17,2 23,0 29,4 19,6 42 62 87 1.006 1.018 1.027 W 6,5 53,1 0,3
10/2023 13,0 17,9 21,3 21,7 21,1 26,2 31,2 18,2 55 72 86 1.001 1.016 1.026 N 5,6 53,1 2,8
09/2023 18,9 21,4 25,0 24,5 26,0 28,1 30,6 11,7 55 78 87 1.010 1.017 1.025 NE 6,6 66,0 39,9
08/2023 21,2 24,5 27,3 27,8 28,3 31,6 37,8 16,6 42 73 83 1.010 1.016 1.020 NE 6,3 48,3 0,3
07/2023 22,8 25,0 27,2 27,9 28,0 31,5 36,9 14,1 57 80 89 1.009 1.016 1.020 ENE 6,1 40,2 4,9
06/2023 17,3 20,9 24,3 24,2 22,2 28,0 32,0 14,7 59 74 86 1.010 1.015 1.023 NE 6,0 53,1 7,4
05/2023 12,9 16,0 18,8 19,2 19,7 23,2 26,0 13,1 60 77 88 1.011 1.016 1.022 NE 6,9 49,9 92,8
04/2023 10,3 14,6 19,7 18,5 18,2 23,0 34,6 24,3 44 67 85 1.009 1.016 1.022 NE 6,8 41,8 6,6
03/2023 4,3 12,1 20,7 16,7 13,5 21,9 30,2 25,9 31 62 83 1.011 1.018 1.026 W 6,7 59,5 2,3
Tots els anys disponibles
2023 3,6 16,1 27,3 19,7 9,8 24,0 37,8 34,2 31 71 89 1.001 1.018 1.037 W 6,4 66,0 177,7
2022 4,8 16,2 27,1 19,7 11,1 23,9 40,2 35,4 33 73 94 1.002 1.018 1.033 NE 6,6 66,0 391,6
2021 3,0 15,6 25,6 18,9 9,3 23,0 40,8 37,8 42 72 93 1.004 1.018 1.035 NE 7,1 64,4 383,5
Temperatura (°C)
Humitat relativa (%)
Velocitat del vent i ràfega màxima (km/h)
Direcció del vent (°)
Pressió (hPa)
Precipitació (mm)
Nota sobre les dades: s'avisa a l'usuari de la provisionalitat i no oficialitat d'aquestes dades
Logo AVAMET blanc
Web allotjada a Sollutia
Llicència de Creative CommonsLa web d'AVAMET i els seus continguts estan subjectes a una llicència de
Reconeixement - No Comercial - Compartir igual
Avís legal - Política de privacitat - Política de cookies - Canviar configuració privacitat
NOVES ESTACIONS: Quart de Poblet - los Hornillos (Soci), Buñol - Partior (Soci), la Pobla de Farnals - Platja (Ajuntament/Soci), la Pobla de Farnals (Ajuntament/Soci), Calp (Ajuntament(Soci),  Carlet (Ajuntament/Soci), l'Alcora - la Foia (Ajuntament/Soci), Sant Vicent del Raspeig - las Ocas (Soci), Alcoi - IES Cotes Baixes (Soci), San Antonio de Benagéber - CELSAB (Soci), la Todolella (Ajuntament/Soci), Artana - Caseta de les Creus (Soci), Suera - Res. Espadà (Soci), Onda - Col·legi Virgen del Carmen (Soci), Catarroja - Col·legi Larrodé (Soci), València - Patraix (Soci), Ontinyent - Torre de Torús (Soci), Requena - El Rebollar (Casa Ejarque) (Soci), Elx - la Foia (Soci), Onda - el Salvador (Ajuntament/Soci), Paiporta (Ajuntament/Soci) - - -